createdAt,value
2022-11-16T00:02:29.912Z,4.90
2022-11-16T00:05:35.770Z,5.20
2022-11-16T00:08:42.176Z,5.22
2022-11-16T00:11:45.740Z,5.00
2022-11-16T00:14:48.905Z,4.76
2022-11-16T00:17:52.307Z,5.01
2022-11-16T00:20:55.732Z,5.07
2022-11-16T00:24:00.223Z,5.23
2022-11-16T00:27:03.400Z,5.27
2022-11-16T00:30:07.577Z,5.43
2022-11-16T00:33:15.607Z,5.36
2022-11-16T00:36:18.871Z,5.65
2022-11-16T00:39:25.452Z,5.72
2022-11-16T00:42:28.604Z,5.77
2022-11-16T00:45:31.941Z,5.72
2022-11-16T00:48:35.604Z,5.90
2022-11-16T00:51:39.441Z,5.70
2022-11-16T00:54:44.870Z,5.83
2022-11-16T00:57:48.136Z,6.12
2022-11-16T01:00:52.477Z,5.81
2022-11-16T01:03:56.468Z,5.81
2022-11-16T01:06:59.948Z,5.85
2022-11-16T01:10:05.160Z,6.02
2022-11-16T01:13:08.738Z,5.95
2022-11-16T01:16:14.517Z,5.90
2022-11-16T01:19:17.680Z,6.06
2022-11-16T01:22:21.314Z,6.13
2022-11-16T01:25:26.087Z,5.74
2022-11-16T01:28:32.795Z,5.93
2022-11-16T01:31:36.724Z,6.10
2022-11-16T01:34:41.102Z,5.82
2022-11-16T01:37:58.572Z,5.99
2022-11-16T01:41:04.375Z,5.88
2022-11-16T01:44:46.562Z,6.13
2022-11-16T01:47:57.908Z,5.92
2022-11-16T01:51:05.943Z,6.12
2022-11-16T01:54:13.403Z,6.09
2022-11-16T01:57:32.611Z,6.00
2022-11-16T02:00:41.709Z,6.05
2022-11-16T02:04:02.757Z,6.04
2022-11-16T02:07:19.416Z,5.84
2022-11-16T02:10:36.109Z,6.00
2022-11-16T02:13:52.520Z,6.25
2022-11-16T02:17:02.683Z,5.87
2022-11-16T02:20:30.968Z,6.00
2022-11-16T02:24:22.697Z,6.01
2022-11-16T02:28:05.372Z,5.81
2022-11-16T02:31:16.965Z,5.87
2022-11-16T02:34:22.230Z,5.79
2022-11-16T02:37:28.374Z,5.77
2022-11-16T02:40:34.646Z,5.70
2022-11-16T02:43:42.596Z,5.09
2022-11-16T02:46:51.135Z,5.22
2022-11-16T02:49:59.988Z,5.80
2022-11-16T02:53:04.991Z,5.68
2022-11-16T02:56:14.239Z,5.49
2022-11-16T02:59:18.414Z,5.60
2022-11-16T03:02:31.200Z,5.56
2022-11-16T03:05:42.121Z,5.55
2022-11-16T03:08:51.467Z,5.62
2022-11-16T03:11:59.376Z,5.64
2022-11-16T03:15:06.961Z,5.49
2022-11-16T03:18:16.440Z,5.45
2022-11-16T03:21:31.405Z,5.47
2022-11-16T03:24:34.659Z,5.45
2022-11-16T03:27:40.467Z,5.33
2022-11-16T03:30:48.770Z,5.31
2022-11-16T03:33:56.967Z,5.23
2022-11-16T03:37:01.675Z,5.59
2022-11-16T03:40:07.215Z,5.25
2022-11-16T03:43:11.802Z,5.45
2022-11-16T03:46:17.422Z,5.29
2022-11-16T03:49:24.019Z,5.30
2022-11-16T03:52:29.733Z,5.47
2022-11-16T03:55:36.257Z,5.40
2022-11-16T03:58:39.915Z,5.13
2022-11-16T04:01:44.859Z,5.28
2022-11-16T04:05:08.873Z,5.34
2022-11-16T04:08:33.605Z,5.19
2022-11-16T04:11:55.501Z,5.11
2022-11-16T04:15:21.841Z,5.24
2022-11-16T04:18:42.579Z,5.13
2022-11-16T04:22:08.354Z,5.18
2022-11-16T04:25:17.102Z,5.09
2022-11-16T04:28:25.514Z,5.07
2022-11-16T04:35:43.549Z,4.37
2022-11-16T04:38:57.285Z,5.14
2022-11-16T04:42:19.947Z,4.84
2022-11-16T04:45:50.145Z,5.30
2022-11-16T04:48:56.803Z,3.77
2022-11-16T04:52:28.136Z,4.21
2022-11-16T04:55:37.826Z,3.57
2022-11-16T04:58:46.373Z,5.06
2022-11-16T05:02:07.269Z,5.01
2022-11-16T05:05:16.464Z,4.98
2022-11-16T05:08:27.532Z,4.34
2022-11-16T05:11:39.893Z,3.92
2022-11-16T05:14:45.804Z,4.25
2022-11-16T05:17:55.002Z,4.79
2022-11-16T05:21:04.308Z,4.90
2022-11-16T05:24:32.971Z,4.22
2022-11-16T05:27:41.695Z,4.26
2022-11-16T05:30:48.266Z,4.08
2022-11-16T05:33:59.456Z,4.48
2022-11-16T05:37:04.636Z,4.95
2022-11-16T05:40:19.649Z,4.95
2022-11-16T05:47:05.561Z,4.90
2022-11-16T05:50:15.945Z,4.98
2022-11-16T05:53:24.737Z,4.56
2022-11-16T05:57:01.840Z,5.01
2022-11-16T06:00:20.456Z,5.00
2022-11-16T06:03:36.446Z,4.88
2022-11-16T06:06:48.526Z,4.94
2022-11-16T06:09:53.794Z,4.84
2022-11-16T06:12:59.754Z,4.78
2022-11-16T06:16:05.642Z,4.21
2022-11-16T06:19:11.218Z,5.01
2022-11-16T06:22:15.268Z,4.85
2022-11-16T06:25:23.413Z,3.70
2022-11-16T06:28:32.780Z,4.24
2022-11-16T06:31:36.987Z,4.85
2022-11-16T06:34:40.657Z,4.66
2022-11-16T06:37:45.777Z,4.88
2022-11-16T06:40:51.954Z,4.23
2022-11-16T06:43:57.070Z,5.28
2022-11-16T06:47:07.427Z,4.94
2022-11-16T07:18:26.557Z,5.14
2022-11-16T07:21:31.688Z,5.24
2022-11-16T07:24:37.930Z,5.15
2022-11-16T07:27:41.602Z,5.26
2022-11-16T07:30:48.220Z,5.30
2022-11-16T07:33:58.902Z,5.22
2022-11-16T07:37:25.532Z,5.22
2022-11-16T07:40:28.849Z,5.23
2022-11-16T07:43:35.031Z,5.43
2022-11-16T07:46:48.364Z,5.34
2022-11-16T07:49:54.312Z,5.32
2022-11-16T07:53:00.850Z,5.20
2022-11-16T07:56:04.820Z,5.15
2022-11-16T07:59:10.232Z,5.24
2022-11-16T08:02:17.897Z,5.08
2022-11-16T08:05:22.837Z,5.31
2022-11-16T08:08:27.442Z,5.29
2022-11-16T08:11:31.652Z,5.32
2022-11-16T08:14:34.782Z,5.25
2022-11-16T08:17:39.191Z,5.30
2022-11-16T08:20:45.676Z,5.38
2022-11-16T08:23:50.673Z,5.44
2022-11-16T08:26:58.761Z,5.17
2022-11-16T08:30:03.131Z,5.38
2022-11-16T08:33:08.108Z,5.39
2022-11-16T08:36:17.278Z,5.44
2022-11-16T08:39:22.073Z,5.37
2022-11-16T08:42:25.849Z,5.40
2022-11-16T08:45:30.057Z,5.43
2022-11-16T08:48:33.918Z,5.49
2022-11-16T08:51:38.551Z,5.46
2022-11-16T08:54:42.514Z,5.65
2022-11-16T08:57:46.658Z,5.57
2022-11-16T09:00:53.762Z,5.68
2022-11-16T09:03:57.622Z,5.64
2022-11-16T09:07:02.181Z,5.70
2022-11-16T09:10:08.506Z,5.73
2022-11-16T09:13:11.832Z,5.77
2022-11-16T09:16:16.689Z,5.79
2022-11-16T09:19:20.938Z,5.82
2022-11-16T09:22:25.708Z,5.85
2022-11-16T09:25:28.861Z,5.87
2022-11-16T09:28:32.830Z,5.90
2022-11-16T09:31:37.397Z,5.96
2022-11-16T09:34:40.596Z,6.03
2022-11-16T09:37:45.206Z,5.99
2022-11-16T09:40:48.963Z,5.98
2022-11-16T09:43:59.990Z,6.00
2022-11-16T09:47:03.673Z,6.00
2022-11-16T09:50:08.738Z,6.09
2022-11-16T09:53:34.789Z,6.13
2022-11-16T09:56:41.373Z,6.16
2022-11-16T09:59:48.930Z,6.17
2022-11-16T10:03:02.744Z,6.14
2022-11-16T10:06:09.339Z,6.25
2022-11-16T10:09:14.858Z,6.33
2022-11-16T10:12:24.103Z,6.46
2022-11-16T10:15:42.902Z,6.44
2022-11-16T10:18:55.035Z,6.32
2022-11-16T10:22:09.931Z,6.48
2022-11-16T10:25:17.633Z,6.47
2022-11-16T10:28:52.762Z,6.61
2022-11-16T10:35:17.041Z,6.66
2022-11-16T10:38:23.387Z,6.66
2022-11-16T10:41:32.741Z,6.94
2022-11-16T10:44:41.354Z,6.84
2022-11-16T10:47:50.252Z,6.94
2022-11-16T10:50:55.609Z,6.87
2022-11-16T10:53:58.911Z,7.01
2022-11-16T10:57:06.004Z,7.05
2022-11-16T11:00:15.209Z,7.03
2022-11-16T11:03:32.305Z,7.06
2022-11-16T11:06:40.280Z,6.91
2022-11-16T11:09:43.480Z,7.00
2022-11-16T11:13:03.071Z,7.37
2022-11-16T11:16:16.356Z,7.13
2022-11-16T11:19:25.033Z,7.53
2022-11-16T11:22:30.745Z,7.53
2022-11-16T11:25:36.918Z,7.58
2022-11-16T11:28:48.754Z,7.66
2022-11-16T11:31:55.479Z,7.43
2022-11-16T11:35:00.070Z,7.50
2022-11-16T11:38:08.162Z,7.71
2022-11-16T11:41:19.968Z,7.79
2022-11-16T11:44:37.032Z,7.88
2022-11-16T11:47:59.032Z,8.22
2022-11-16T11:51:05.687Z,8.30
2022-11-16T11:54:19.114Z,8.40
2022-11-16T11:57:24.894Z,8.51
2022-11-16T12:00:28.325Z,8.48
2022-11-16T12:03:44.738Z,8.58
2022-11-16T12:06:57.722Z,8.58
2022-11-16T12:10:14.029Z,8.66
2022-11-16T12:13:36.293Z,8.92
2022-11-16T12:16:49.182Z,8.76
2022-11-16T12:20:09.082Z,9.03
2022-11-16T12:23:36.501Z,8.98
2022-11-16T12:26:54.108Z,9.10
2022-11-16T12:30:03.656Z,9.45
2022-11-16T12:33:22.543Z,9.25
2022-11-16T12:36:35.292Z,9.15
2022-11-16T12:39:44.480Z,9.18
2022-11-16T12:42:54.855Z,9.27
2022-11-16T12:46:11.610Z,9.27
2022-11-16T12:49:32.707Z,9.46
2022-11-16T12:52:54.423Z,9.43
2022-11-16T12:56:04.587Z,9.50
2022-11-16T12:59:31.940Z,9.34
2022-11-16T13:02:54.588Z,9.33
2022-11-16T13:06:03.165Z,9.14
2022-11-16T13:09:13.665Z,9.20
2022-11-16T13:12:19.247Z,9.05
2022-11-16T13:15:35.632Z,9.32
2022-11-16T13:18:44.044Z,9.30
2022-11-16T13:21:54.724Z,9.42
2022-11-16T13:25:04.446Z,9.53
2022-11-16T13:28:17.882Z,9.52
2022-11-16T13:31:31.483Z,9.68
2022-11-16T13:34:39.054Z,9.53
2022-11-16T13:37:43.882Z,9.92
2022-11-16T13:40:47.271Z,9.91
2022-11-16T13:43:51.081Z,9.92
2022-11-16T13:46:59.654Z,10.02
2022-11-16T13:50:04.238Z,10.06
2022-11-16T13:54:04.079Z,9.83
2022-11-16T13:56:49.259Z,9.71
2022-11-16T14:00:09.765Z,9.51
2022-11-16T14:03:38.490Z,9.62
2022-11-16T14:06:59.277Z,9.52
2022-11-16T14:10:05.567Z,9.45
2022-11-16T14:13:39.079Z,9.29
2022-11-16T14:16:58.047Z,9.25
2022-11-16T14:20:02.709Z,9.15
2022-11-16T14:23:17.344Z,9.35
2022-11-16T14:26:24.683Z,8.95
2022-11-16T14:29:53.512Z,8.97
2022-11-16T14:32:58.366Z,8.51
2022-11-16T14:36:05.511Z,8.39
2022-11-16T14:39:35.280Z,8.54
2022-11-16T14:43:14.910Z,8.30
2022-11-16T14:46:21.316Z,8.20
2022-11-16T14:49:26.999Z,8.17
2022-11-16T14:52:47.464Z,8.08
2022-11-16T14:55:50.657Z,7.99
2022-11-16T14:58:56.563Z,7.94
2022-11-16T15:02:03.703Z,7.92
2022-11-16T15:05:08.147Z,7.75
2022-11-16T15:08:20.054Z,7.52
2022-11-16T15:11:48.148Z,7.29
2022-11-16T15:14:53.730Z,7.48
2022-11-16T15:18:07.890Z,6.99
2022-11-16T15:21:22.523Z,6.97
2022-11-16T15:24:31.569Z,6.67
2022-11-16T15:27:38.606Z,6.74
2022-11-16T15:30:42.383Z,6.81
2022-11-16T15:33:47.082Z,7.00
2022-11-16T15:36:50.288Z,6.84
2022-11-16T15:39:56.410Z,6.72
2022-11-16T15:43:01.122Z,6.70
2022-11-16T15:46:05.678Z,6.87
2022-11-16T15:49:20.710Z,6.76
2022-11-16T15:52:47.404Z,6.48
2022-11-16T15:55:52.114Z,6.39
2022-11-16T15:58:57.157Z,6.69
2022-11-16T16:02:00.489Z,6.57
2022-11-16T16:05:03.660Z,6.47
2022-11-16T16:08:26.535Z,6.86
2022-11-16T16:11:31.129Z,7.07
2022-11-16T16:14:34.875Z,7.14
2022-11-16T16:17:52.713Z,6.82
2022-11-16T16:20:59.561Z,6.64
2022-11-16T16:24:03.775Z,6.67
2022-11-16T16:27:13.599Z,6.83
2022-11-16T16:30:18.408Z,6.64
2022-11-16T16:35:17.738Z,6.58
2022-11-16T16:38:25.010Z,6.27
2022-11-16T16:41:35.003Z,6.15
2022-11-16T16:44:38.992Z,6.02
2022-11-16T16:47:42.150Z,6.23
2022-11-16T16:50:46.785Z,6.17
2022-11-16T16:53:49.931Z,6.18
2022-11-16T16:56:53.397Z,6.05
2022-11-16T16:59:58.098Z,5.57
2022-11-16T17:03:01.284Z,5.41
2022-11-16T17:06:06.219Z,5.93
2022-11-16T17:09:12.019Z,5.65
2022-11-16T17:12:15.214Z,5.64
2022-11-16T17:15:19.621Z,5.66
2022-11-16T17:18:23.339Z,5.62
2022-11-16T17:21:28.059Z,5.53
2022-11-16T17:24:31.303Z,5.67
2022-11-16T17:27:34.740Z,5.87
2022-11-16T17:30:38.125Z,5.88
2022-11-16T17:33:43.830Z,5.31
2022-11-16T17:36:48.756Z,5.77
2022-11-16T17:39:51.881Z,5.47
2022-11-16T17:43:10.256Z,5.82
2022-11-16T17:46:49.315Z,5.75
2022-11-16T17:49:59.726Z,5.30
2022-11-16T17:53:04.742Z,5.08
2022-11-16T17:56:08.635Z,5.16
2022-11-16T17:59:11.894Z,4.88
2022-11-16T18:02:15.137Z,4.77
2022-11-16T18:05:18.344Z,4.77
2022-11-16T18:08:22.901Z,4.67
2022-11-16T18:11:27.689Z,4.86
2022-11-16T18:14:30.883Z,4.34
2022-11-16T18:17:35.347Z,4.81
2022-11-16T18:20:38.947Z,5.53
2022-11-16T18:23:43.909Z,5.70
2022-11-16T18:26:47.172Z,4.75
2022-11-16T18:29:50.517Z,4.93
2022-11-16T18:32:54.108Z,5.54
2022-11-16T18:35:57.672Z,5.77
2022-11-16T18:39:02.350Z,5.65
2022-11-16T18:42:05.839Z,5.75
2022-11-16T18:45:09.990Z,5.75
2022-11-16T18:48:13.253Z,5.91
2022-11-16T18:51:17.381Z,6.09
2022-11-16T18:54:21.954Z,6.15
2022-11-16T18:57:25.144Z,6.09
2022-11-16T19:00:28.328Z,6.25
2022-11-16T19:03:32.607Z,6.02
2022-11-16T19:06:35.931Z,6.07
2022-11-16T19:09:40.443Z,5.66
2022-11-16T19:12:43.995Z,5.76
2022-11-16T19:15:47.218Z,5.53
2022-11-16T19:18:50.597Z,5.61
2022-11-16T19:21:56.088Z,5.96
2022-11-16T19:25:05.822Z,5.65
2022-11-16T19:28:09.467Z,5.71
2022-11-16T19:31:14.818Z,5.63
2022-11-16T19:34:17.950Z,5.99
2022-11-16T19:37:21.051Z,5.99
2022-11-16T19:40:25.612Z,5.65
2022-11-16T19:43:29.080Z,5.66
2022-11-16T19:46:33.787Z,5.54
2022-11-16T19:49:37.283Z,5.47
2022-11-16T19:52:40.405Z,5.38
2022-11-16T19:56:02.146Z,5.32
2022-11-16T19:59:05.384Z,5.86
2022-11-16T20:02:09.994Z,5.69
2022-11-16T20:05:13.383Z,5.54
2022-11-16T20:08:16.896Z,5.58
2022-11-16T20:11:23.003Z,5.54
2022-11-16T20:14:26.491Z,5.45
2022-11-16T20:17:29.739Z,5.32
2022-11-16T20:20:33.232Z,5.27
2022-11-16T20:23:45.524Z,5.26
2022-11-16T20:26:53.557Z,5.29
2022-11-16T20:29:56.778Z,5.38
2022-11-16T20:33:00.281Z,5.18
2022-11-16T20:36:10.408Z,5.08
2022-11-16T20:39:16.595Z,5.14
2022-11-16T20:42:27.872Z,5.33
2022-11-16T20:45:36.047Z,5.19
2022-11-16T20:48:43.465Z,5.11
2022-11-16T20:51:48.347Z,5.19
2022-11-16T20:54:53.891Z,5.27
2022-11-16T20:58:01.337Z,5.30
2022-11-16T21:01:06.581Z,5.60
2022-11-16T21:04:14.193Z,5.63
2022-11-16T21:07:24.232Z,5.34
2022-11-16T21:10:36.346Z,5.69
2022-11-16T21:14:00.302Z,5.20
2022-11-16T21:17:03.826Z,5.31
2022-11-16T21:23:33.226Z,5.19
2022-11-16T21:26:39.979Z,5.20
2022-11-16T21:29:48.708Z,5.48
2022-11-16T21:32:52.410Z,5.63
2022-11-16T21:35:56.728Z,5.40
2022-11-16T21:39:00.315Z,5.96
2022-11-16T21:42:03.957Z,5.69
2022-11-16T21:45:20.141Z,6.00
2022-11-16T21:48:33.582Z,5.69
2022-11-16T21:51:45.291Z,5.69
2022-11-16T21:54:54.124Z,5.60
2022-11-16T21:58:04.481Z,5.51
2022-11-16T22:01:57.032Z,5.55
2022-11-16T22:05:28.375Z,5.51
2022-11-16T22:08:42.155Z,5.58
2022-11-16T22:11:51.411Z,5.29
2022-11-16T22:14:58.789Z,5.60
2022-11-16T22:18:16.118Z,5.46
2022-11-16T22:21:24.376Z,5.44
2022-11-16T22:24:32.614Z,5.42
2022-11-16T22:28:13.883Z,5.32
2022-11-16T22:35:15.406Z,5.18
2022-11-16T22:38:45.129Z,5.39
2022-11-16T22:41:51.726Z,5.11
2022-11-16T22:45:06.526Z,5.02
2022-11-16T22:48:21.518Z,4.99
2022-11-16T22:51:35.692Z,5.02
2022-11-16T22:54:58.948Z,4.90
2022-11-16T22:58:05.717Z,4.83
2022-11-16T23:01:20.133Z,4.92
2022-11-16T23:04:28.418Z,4.81
2022-11-16T23:07:47.753Z,4.85
2022-11-16T23:11:18.481Z,4.86
2022-11-16T23:14:49.471Z,4.86
2022-11-16T23:18:18.923Z,4.81
2022-11-16T23:21:41.887Z,4.82
2022-11-16T23:25:06.446Z,4.90
2022-11-16T23:28:16.679Z,4.98
2022-11-16T23:31:24.330Z,5.00
2022-11-16T23:34:32.504Z,5.12
2022-11-16T23:38:05.592Z,4.73
2022-11-16T23:41:35.123Z,5.08
2022-11-16T23:44:41.147Z,5.01
2022-11-16T23:47:53.478Z,5.04
2022-11-16T23:51:02.749Z,5.08
2022-11-16T23:54:08.651Z,5.14
2022-11-16T23:57:22.768Z,5.26
